Time;durP1;ratioP1;P1;durP2;ratioP2;P2;SDS_P1;SDS_P2;PMS_P1;PMS_P2;Temp;Humidity;BMP_temperature;BMP_pressure;BME280_temperature;BME280_humidity;BME280_pressure;Samples;Min_cycle;Max_cycle;Signal;HPM_P1;HPM_P2
2021/09/20 00:02:43;;;;;;;1.88;1.30;;;;;;;12.18;100.00;101742.53;6408463;27;20065;-83
2021/09/20 00:05:45;;;;;;;1.88;1.08;;;;;;;12.16;100.00;101740.88;6407057;27;20047;-83
2021/09/20 00:08:46;;;;;;;2.97;1.33;;;;;;;12.12;100.00;101732.25;6407067;27;20053;-83
2021/09/20 00:11:47;;;;;;;2.50;1.38;;;;;;;12.11;100.00;101734.97;6405651;27;20053;-85
2021/09/20 00:14:50;;;;;;;1.95;1.00;;;;;;;12.10;100.00;101728.84;6406639;27;20047;-83
2021/09/20 00:17:52;;;;;;;1.25;1.00;;;;;;;12.08;100.00;101733.31;6404950;27;20038;-83
2021/09/20 00:20:53;;;;;;;1.92;1.42;;;;;;;12.10;100.00;101741.16;6403582;27;20050;-83
2021/09/20 00:23:54;;;;;;;2.85;1.50;;;;;;;12.14;100.00;101742.75;6404342;27;20051;-82
2021/09/20 00:26:56;;;;;;;1.67;0.88;;;;;;;12.16;100.00;101738.25;6404058;27;20054;-82
2021/09/20 00:29:59;;;;;;;2.65;1.00;;;;;;;12.11;100.00;101741.06;6406002;27;20047;-82
2021/09/20 00:33:00;;;;;;;1.38;1.27;;;;;;;12.08;100.00;101742.97;6405373;27;20058;-81
2021/09/20 00:36:01;;;;;;;1.20;0.88;;;;;;;12.05;100.00;101744.00;6402540;27;20046;-82
2021/09/20 00:39:03;;;;;;;2.53;1.30;;;;;;;12.04;100.00;101741.44;6366542;22;20416;-83
2021/09/20 00:42:05;;;;;;;1.98;1.35;;;;;;;12.05;100.00;101736.09;6204652;28;20058;-83
2021/09/20 00:45:10;;;;;;;1.42;1.13;;;;;;;12.03;100.00;101739.69;6195950;28;20080;-83
2021/09/20 00:48:11;;;;;;;0.77;0.70;;;;;;;12.00;100.00;101745.13;6195873;28;20047;-83
2021/09/20 00:51:12;;;;;;;1.45;1.10;;;;;;;11.98;100.00;101739.03;6196110;28;20054;-83
2021/09/20 00:54:14;;;;;;;4.00;1.35;;;;;;;11.97;100.00;101738.19;6195841;28;20050;-83
2021/09/20 00:57:15;;;;;;;1.48;1.15;;;;;;;11.93;100.00;101744.50;6195818;28;20057;-82
2021/09/20 01:00:19;;;;;;;1.30;1.00;;;;;;;11.92;100.00;101746.28;6196047;28;20046;-82
2021/09/20 01:03:20;;;;;;;1.58;1.23;;;;;;;11.89;100.00;101749.03;6195490;28;20053;-82
2021/09/20 01:06:21;;;;;;;2.55;1.15;;;;;;;11.87;100.00;101737.75;6195999;28;20054;-83
2021/09/20 01:09:25;;;;;;;2.08;1.30;;;;;;;11.86;100.00;101743.94;6195832;28;20050;-82
2021/09/20 01:12:28;;;;;;;1.45;1.17;;;;;;;11.84;100.00;101743.13;6196066;28;20050;-83
2021/09/20 01:15:32;;;;;;;2.13;1.27;;;;;;;11.85;100.00;101744.84;6195827;28;20042;-82
2021/09/20 01:18:34;;;;;;;3.17;1.15;;;;;;;11.81;100.00;101740.59;6195821;28;20051;-82
2021/09/20 01:21:35;;;;;;;2.25;1.30;;;;;;;11.78;100.00;101738.09;6195937;28;20061;-82
2021/09/20 01:24:38;;;;;;;1.80;1.27;;;;;;;11.82;100.00;101744.09;6195403;28;20042;-82
2021/09/20 01:27:41;;;;;;;1.55;1.10;;;;;;;11.77;100.00;101739.03;6195628;28;20049;-82
2021/09/20 01:30:42;;;;;;;2.85;1.20;;;;;;;11.77;100.00;101743.44;6195597;28;20050;-82
2021/09/20 01:33:44;;;;;;;1.52;1.00;;;;;;;11.80;100.00;101749.41;6194900;28;20047;-82
2021/09/20 01:36:46;;;;;;;1.92;1.27;;;;;;;11.80;100.00;101756.47;6195581;28;20452;-83
2021/09/20 01:39:49;;;;;;;1.23;0.77;;;;;;;11.75;100.00;101748.75;6199198;28;20054;-82
2021/09/20 01:42:51;;;;;;;2.30;1.40;;;;;;;11.75;100.00;101750.53;6199716;28;20057;-83
2021/09/20 01:45:52;;;;;;;1.35;0.93;;;;;;;11.77;100.00;101749.56;6199128;28;20046;-83
2021/09/20 01:48:53;;;;;;;1.55;1.15;;;;;;;11.76;100.00;101742.56;6199496;28;20046;-82
2021/09/20 01:51:56;;;;;;;3.03;1.33;;;;;;;11.79;100.00;101738.94;6199620;28;20049;-82
2021/09/20 01:54:59;;;;;;;1.48;0.88;;;;;;;11.78;100.00;101745.16;6199304;28;20501;-81
2021/09/20 01:58:00;;;;;;;3.47;0.98;;;;;;;11.74;100.00;101741.78;6199292;28;20061;-82
2021/09/20 02:01:02;;;;;;;1.48;1.10;;;;;;;11.77;100.00;101746.94;6199256;28;20083;-82
2021/09/20 02:04:04;;;;;;;1.00;0.90;;;;;;;11.74;100.00;101754.09;6198765;28;20053;-82
2021/09/20 02:07:05;;;;;;;2.00;1.30;;;;;;;11.76;100.00;101745.19;6199029;28;20053;-83
2021/09/20 02:10:12;;;;;;;3.78;1.30;;;;;;;11.72;100.00;101751.53;6199072;28;20061;-83
2021/09/20 02:13:13;;;;;;;1.58;1.00;;;;;;;11.72;100.00;101750.66;6198659;28;20061;-82
2021/09/20 02:16:15;;;;;;;0.85;0.80;;;;;;;11.69;100.00;101749.88;6198827;28;20062;-83
2021/09/20 02:19:16;;;;;;;2.10;1.10;;;;;;;11.66;100.00;101750.00;6198826;28;20497;-83
2021/09/20 02:22:18;;;;;;;1.30;0.90;;;;;;;11.67;100.00;101750.84;6198899;28;20437;-82
2021/09/20 02:25:23;;;;;;;1.17;0.90;;;;;;;11.68;100.00;101747.31;6198762;28;20057;-82
2021/09/20 02:28:24;;;;;;;1.58;1.10;;;;;;;11.67;100.00;101757.00;6198637;28;20502;-82
2021/09/20 02:31:26;;;;;;;1.38;1.13;;;;;;;11.66;100.00;101755.25;6198771;28;20488;-82
2021/09/20 02:34:27;;;;;;;1.60;0.93;;;;;;;11.65;100.00;101752.69;6185602;28;20426;-82
2021/09/20 02:37:29;;;;;;;1.20;1.08;;;;;;;11.60;100.00;101760.78;6174248;28;20054;-82
2021/09/20 02:40:31;;;;;;;2.20;1.10;;;;;;;11.60;100.00;101763.41;6174388;28;20051;-82
2021/09/20 02:43:34;;;;;;;1.98;1.17;;;;;;;11.59;100.00;101755.59;6173983;28;20057;-82
2021/09/20 02:46:35;;;;;;;1.48;1.10;;;;;;;11.60;100.00;101759.94;6174341;28;20509;-82
2021/09/20 02:49:37;;;;;;;2.22;1.10;;;;;;;11.58;100.00;101765.28;6173290;28;20057;-82
2021/09/20 02:52:39;;;;;;;3.80;1.30;;;;;;;11.60;100.00;101773.94;6173794;28;20494;-82
2021/09/20 02:55:43;;;;;;;1.88;0.98;;;;;;;11.61;100.00;101772.16;6174145;28;20050;-82
2021/09/20 02:58:44;;;;;;;0.70;0.70;;;;;;;11.62;100.00;101772.09;6174225;28;20046;-82
2021/09/20 03:01:45;;;;;;;2.88;1.10;;;;;;;11.62;100.00;101758.06;6174171;28;20074;-82
2021/09/20 03:04:46;;;;;;;3.10;1.00;;;;;;;11.65;100.00;101768.50;6173803;28;20421;-82
2021/09/20 03:07:48;;;;;;;1.65;0.95;;;;;;;11.68;100.00;101765.75;6174204;28;20058;-81
2021/09/20 03:10:51;;;;;;;0.82;0.80;;;;;;;11.71;100.00;101767.38;6173836;28;20066;-82
2021/09/20 03:13:52;;;;;;;1.27;1.10;;;;;;;11.65;100.00;101766.72;6174179;28;20055;-83
2021/09/20 03:16:53;;;;;;;1.92;0.90;;;;;;;11.64;100.00;101769.41;6173949;28;20518;-83
2021/09/20 03:19:55;;;;;;;1.38;0.73;;;;;;;11.61;100.00;101778.28;6173880;28;20058;-82
2021/09/20 03:22:56;;;;;;;3.85;1.15;;;;;;;11.65;100.00;101771.97;6173563;28;20144;-82
2021/09/20 03:25:59;;;;;;;1.40;1.00;;;;;;;11.66;100.00;101773.69;6173368;28;20047;-82
2021/09/20 03:29:00;;;;;;;1.23;1.05;;;;;;;11.67;100.00;101778.06;6173391;28;20513;-82
2021/09/20 03:32:02;;;;;;;2.28;1.25;;;;;;;11.67;100.00;101780.69;6173404;28;20502;-82
2021/09/20 03:35:04;;;;;;;1.42;0.80;;;;;;;11.60;100.00;101778.38;6172953;28;20509;-83
2021/09/20 03:38:05;;;;;;;1.38;1.00;;;;;;;11.64;100.00;101779.94;6173732;28;20057;-82
2021/09/20 03:41:08;;;;;;;0.75;0.68;;;;;;;11.63;100.00;101765.09;6179598;28;20050;-82
2021/09/20 03:44:09;;;;;;;2.42;1.10;;;;;;;11.60;100.00;101778.38;6197855;28;20405;-83
2021/09/20 03:47:11;;;;;;;0.93;0.80;;;;;;;11.58;100.00;101785.44;6194048;28;20057;-82
2021/09/20 03:50:12;;;;;;;1.50;0.80;;;;;;;11.63;100.00;101791.41;6187798;28;20047;-82
2021/09/20 03:53:14;;;;;;;1.50;1.02;;;;;;;11.64;100.00;101795.75;6196120;28;20135;-82
2021/09/20 03:56:16;;;;;;;1.83;0.80;;;;;;;11.62;100.00;101789.69;6173775;28;20058;-83
2021/09/20 03:59:18;;;;;;;1.75;0.93;;;;;;;11.56;100.00;101785.53;6173943;28;20047;-83
2021/09/20 04:02:19;;;;;;;1.10;0.90;;;;;;;11.53;100.00;101797.94;6173556;28;20051;-83
2021/09/20 04:05:21;;;;;;;1.30;1.00;;;;;;;11.50;100.00;101803.34;6173898;28;20043;-83
2021/09/20 04:08:33;;;;;;;0.70;0.70;;;;;;;11.45;100.00;101800.91;6177051;28;20046;-82
2021/09/20 04:11:40;;;;;;;1.90;0.88;;;;;;;11.49;100.00;101807.78;6185578;28;20073;-83
2021/09/20 04:14:41;;;;;;;0.73;0.60;;;;;;;11.48;100.00;101810.44;6198880;28;20054;-84
2021/09/20 04:17:46;;;;;;;0.60;0.60;;;;;;;11.47;100.00;101808.72;6193970;28;20441;-83
2021/09/20 04:20:52;;;;;;;0.85;0.75;;;;;;;11.44;100.00;101809.69;6187909;28;20057;-83
2021/09/20 04:23:54;;;;;;;1.80;1.35;;;;;;;11.41;100.00;101812.47;6198619;28;20042;-83
2021/09/20 04:26:57;;;;;;;1.60;0.98;;;;;;;11.38;100.00;101809.97;6197315;28;20053;-83
2021/09/20 04:29:58;;;;;;;2.85;0.77;;;;;;;11.39;100.00;101815.16;6198006;28;20055;-83
2021/09/20 04:33:00;;;;;;;1.55;1.15;;;;;;;11.36;100.00;101817.06;6196806;28;20053;-81
2021/09/20 04:36:01;;;;;;;0.68;0.63;;;;;;;11.34;100.00;101819.75;6198159;28;20057;-83
2021/09/20 04:39:03;;;;;;;0.60;0.60;;;;;;;11.35;100.00;101829.34;6196457;28;20501;-84
2021/09/20 04:42:06;;;;;;;1.45;1.05;;;;;;;11.33;100.00;101830.34;6197756;28;20461;-84
2021/09/20 04:45:08;;;;;;;3.53;0.68;;;;;;;11.29;100.00;101834.00;6197917;28;20047;-84
2021/09/20 04:48:11;;;;;;;0.65;0.60;;;;;;;11.27;100.00;101834.06;6198299;28;20058;-84
2021/09/20 04:51:12;;;;;;;1.00;0.80;;;;;;;11.30;100.00;101844.47;6198175;28;20058;-84
2021/09/20 04:54:13;;;;;;;3.42;0.80;;;;;;;11.31;100.00;101842.69;6197782;28;20440;-84
2021/09/20 04:57:16;;;;;;;2.42;1.02;;;;;;;11.30;100.00;101849.72;6197368;28;20053;-84
2021/09/20 05:00:18;;;;;;;2.25;1.83;;;;;;;11.30;100.00;101847.09;6197994;28;20054;-85
2021/09/20 05:03:19;;;;;;;2.38;1.38;;;;;;;11.33;100.00;101846.13;6197835;28;20046;-86
2021/09/20 05:06:21;;;;;;;2.15;1.00;;;;;;;11.35;100.00;101852.19;6197468;28;20047;-85
2021/09/20 05:09:22;;;;;;;0.88;0.80;;;;;;;11.32;100.00;101850.53;6197881;28;20057;-85
2021/09/20 05:12:25;;;;;;;1.10;0.90;;;;;;;11.36;100.00;101848.66;6197891;28;20485;-85
2021/09/20 05:15:26;;;;;;;5.43;0.95;;;;;;;11.40;100.00;101861.63;6198602;28;20049;-86
2021/09/20 05:18:28;;;;;;;1.02;0.70;;;;;;;11.39;100.00;101859.03;6197769;28;20144;-84
2021/09/20 05:21:29;;;;;;;1.10;0.68;;;;;;;11.41;100.00;101862.47;6199055;28;20486;-85
2021/09/20 05:24:31;;;;;;;2.72;1.13;;;;;;;11.42;100.00;101866.81;6197886;28;20504;-85
2021/09/20 05:27:36;;;;;;;0.93;0.80;;;;;;;11.35;100.00;101865.34;6198256;28;20053;-84
2021/09/20 05:30:38;;;;;;;0.60;0.60;;;;;;;11.31;100.00;101875.16;6198341;28;20054;-85
2021/09/20 05:33:46;;;;;;;0.82;0.63;;;;;;;11.33;100.00;101872.44;6197172;28;20405;-86
2021/09/20 05:36:47;;;;;;;1.02;0.90;;;;;;;11.34;100.00;101872.38;6197748;28;20389;-85
2021/09/20 05:39:49;;;;;;;1.60;0.90;;;;;;;11.34;100.00;101874.16;6197292;28;20057;-85
2021/09/20 05:42:56;;;;;;;0.77;0.77;;;;;;;11.37;100.00;101876.69;6198050;28;20046;-85
2021/09/20 05:45:57;;;;;;;1.10;0.75;;;;;;;11.38;100.00;101878.38;6197159;28;20099;-85
2021/09/20 05:48:59;;;;;;;2.70;1.05;;;;;;;11.42;100.00;101878.22;6197692;28;20059;-85
2021/09/20 05:52:05;;;;;;;3.95;0.80;;;;;;;11.41;100.00;101879.13;6197711;28;20181;-85
2021/09/20 05:55:10;;;;;;;4.70;1.17;;;;;;;11.38;100.00;101879.25;6197868;28;20512;-85
2021/09/20 05:58:13;;;;;;;0.82;0.70;;;;;;;11.33;100.00;101889.09;6198189;28;20066;-85
2021/09/20 06:01:15;;;;;;;1.25;0.75;;;;;;;11.28;100.00;101887.56;6198209;28;20055;-85
2021/09/20 06:04:17;;;;;;;1.10;0.98;;;;;;;11.28;100.00;101887.56;6197694;28;20055;-84
2021/09/20 06:07:18;;;;;;;1.58;0.75;;;;;;;11.33;100.00;101885.59;6197470;28;20066;-85
2021/09/20 06:10:30;;;;;;;0.82;0.77;;;;;;;11.38;100.00;101883.66;6196997;28;20528;-85
2021/09/20 06:13:42;;;;;;;1.73;0.93;;;;;;;11.43;100.00;101879.91;6196462;28;20060;-85
2021/09/20 06:16:43;;;;;;;1.40;0.52;;;;;;;11.46;100.00;101881.59;6196805;28;20050;-85
2021/09/20 06:19:46;;;;;;;0.60;0.60;;;;;;;11.50;100.00;101893.72;6197637;28;20042;-85
2021/09/20 06:22:48;;;;;;;1.20;0.80;;;;;;;11.48;100.00;101890.25;6196770;28;20059;-84
2021/09/20 06:25:49;;;;;;;1.30;0.70;;;;;;;11.48;100.00;101895.53;6198590;28;20053;-85
2021/09/20 06:28:52;;;;;;;1.35;0.65;;;;;;;11.49;100.00;101891.13;6200513;28;20054;-85
2021/09/20 06:31:53;;;;;;;1.38;0.77;;;;;;;11.48;100.00;101892.03;6199655;28;20050;-83
2021/09/20 06:34:55;;;;;;;0.50;0.50;;;;;;;11.53;100.00;101898.84;6200085;28;20387;-84
2021/09/20 06:37:56;;;;;;;1.20;0.75;;;;;;;11.57;100.00;101892.53;6200660;28;20050;-86
2021/09/20 06:40:58;;;;;;;1.30;0.80;;;;;;;11.61;100.00;101899.41;6307759;22;20055;-80
2021/09/20 06:44:02;;;;;;;0.93;0.65;;;;;;;11.65;100.00;101906.28;6311004;28;20047;-81
2021/09/20 06:47:04;;;;;;;1.02;0.80;;;;;;;11.66;100.00;101904.50;6327540;28;20560;-80
2021/09/20 06:50:07;;;;;;;5.22;1.33;;;;;;;11.69;99.76;101899.13;6304110;28;20048;-81
2021/09/20 06:53:08;;;;;;;1.95;0.77;;;;;;;11.68;99.12;101895.63;6309182;28;20064;-80
2021/09/20 06:56:10;;;;;;;8.93;1.15;;;;;;;11.69;98.77;101912.28;6314122;28;20411;-80
2021/09/20 06:59:12;;;;;;;0.95;0.80;;;;;;;11.72;98.87;101900.75;6312573;28;20055;-80
2021/09/20 07:02:14;;;;;;;0.73;0.50;;;;;;;11.81;98.30;101908.28;6312968;28;20048;-80
2021/09/20 07:05:15;;;;;;;0.82;0.40;;;;;;;11.78;96.87;101911.91;6310996;28;20041;-80
2021/09/20 07:08:16;;;;;;;0.60;0.60;;;;;;;11.80;96.50;101906.56;6312699;28;20577;-79
2021/09/20 07:11:18;;;;;;;0.57;0.50;;;;;;;11.79;95.53;101915.41;6314093;28;20053;-81
2021/09/20 07:14:20;;;;;;;0.50;0.50;;;;;;;11.89;96.35;101912.38;6312566;28;20052;-79
2021/09/20 07:17:22;;;;;;;1.00;0.68;;;;;;;11.92;96.22;101911.41;6312593;28;20041;-80
2021/09/20 07:20:23;;;;;;;1.27;0.57;;;;;;;11.97;95.57;101921.75;6314376;28;20056;-79
2021/09/20 07:23:24;;;;;;;1.05;0.95;;;;;;;12.06;96.71;101918.75;6312500;28;20052;-81
2021/09/20 07:26:29;;;;;;;1.52;0.70;;;;;;;12.09;94.97;101919.47;6312765;28;20048;-80
2021/09/20 07:29:32;;;;;;;0.95;0.68;;;;;;;12.14;94.56;101928.06;6314536;28;20499;-81
2021/09/20 07:32:34;;;;;;;0.95;0.75;;;;;;;12.18;94.21;101924.38;6313771;28;20048;-80
2021/09/20 07:35:35;;;;;;;1.63;0.70;;;;;;;12.26;94.40;101926.66;6313776;28;20059;-80
2021/09/20 07:38:38;;;;;;;1.52;0.80;;;;;;;12.31;92.40;101921.22;6311985;28;20056;-81
2021/09/20 07:41:39;;;;;;;1.40;0.57;;;;;;;12.35;91.29;101931.59;6313443;28;20048;-81
2021/09/20 07:44:42;;;;;;;0.75;0.73;;;;;;;12.37;91.27;101931.50;6312152;28;20484;-81
2021/09/20 07:47:44;;;;;;;1.70;0.80;;;;;;;12.38;91.18;101928.81;6311313;28;20045;-81
2021/09/20 07:50:45;;;;;;;0.98;0.70;;;;;;;12.42;92.22;101927.75;6311138;28;20048;-80
2021/09/20 07:53:47;;;;;;;1.27;0.80;;;;;;;12.45;92.05;101937.34;6300738;28;20488;-75
2021/09/20 07:56:48;;;;;;;1.52;0.63;;;;;;;12.49;91.85;101935.41;6313288;28;20060;-81
2021/09/20 07:59:51;;;;;;;0.63;0.52;;;;;;;12.53;91.07;101939.63;6316853;28;20059;-81
2021/09/20 08:02:52;;;;;;;1.48;0.63;;;;;;;12.58;92.06;101942.91;6316274;28;20052;-81
2021/09/20 08:05:54;;;;;;;0.75;0.50;;;;;;;12.63;91.56;101951.53;6309092;28;20044;-82
2021/09/20 08:08:56;;;;;;;0.90;0.73;;;;;;;12.67;91.00;101948.69;6301258;28;20059;-81
2021/09/20 08:11:57;;;;;;;0.63;0.63;;;;;;;12.74;91.80;101948.41;6304854;28;20044;-80
2021/09/20 08:15:00;;;;;;;0.70;0.60;;;;;;;12.77;91.44;101956.19;6302594;28;20052;-80
2021/09/20 08:18:02;;;;;;;0.80;0.52;;;;;;;12.78;90.23;101956.13;6302981;28;20068;-81
2021/09/20 08:21:03;;;;;;;0.73;0.68;;;;;;;12.77;87.56;101946.50;6303716;28;20045;-81
2021/09/20 08:24:05;;;;;;;1.23;0.70;;;;;;;12.79;87.75;101949.06;6302954;28;20496;-81
2021/09/20 08:27:07;;;;;;;2.75;0.98;;;;;;;12.84;87.46;101947.06;6303691;28;20045;-80
2021/09/20 08:30:11;;;;;;;0.60;0.60;;;;;;;12.88;87.42;101949.53;6305022;28;20415;-81
2021/09/20 08:33:12;;;;;;;0.85;0.68;;;;;;;12.93;87.52;101950.16;6303023;28;20052;-81
2021/09/20 08:36:14;;;;;;;1.83;0.93;;;;;;;12.91;85.86;101954.66;6303050;28;20055;-80
2021/09/20 08:39:15;;;;;;;0.52;0.52;;;;;;;12.87;85.47;101955.72;6302889;28;20049;-79
2021/09/20 08:42:17;;;;;;;1.15;0.68;;;;;;;12.92;86.43;101966.06;6303439;28;20060;-81
2021/09/20 08:45:22;;;;;;;0.75;0.75;;;;;;;12.97;86.92;101965.88;6302692;28;20063;-81
2021/09/20 08:48:24;;;;;;;1.88;0.80;;;;;;;12.99;85.97;101970.19;6303437;28;20427;-82
2021/09/20 08:51:25;;;;;;;1.05;0.90;;;;;;;13.03;85.37;101969.09;6304859;28;20045;-82
2021/09/20 08:54:27;;;;;;;2.70;0.73;;;;;;;13.05;86.52;101974.31;6302147;28;20044;-82
2021/09/20 08:57:29;;;;;;;3.72;0.93;;;;;;;12.99;87.60;101974.56;6303806;28;20440;-81
2021/09/20 09:00:32;;;;;;;0.57;0.57;;;;;;;13.02;87.29;101975.31;6303394;28;20049;-82
2021/09/20 09:03:34;;;;;;;1.65;0.80;;;;;;;12.97;87.33;101985.19;6302783;28;20048;-81
2021/09/20 09:06:35;;;;;;;2.40;0.88;;;;;;;12.96;87.74;101983.50;6301766;28;20053;-79
2021/09/20 09:09:40;;;;;;;1.80;0.85;;;;;;;12.93;87.24;101995.03;6298498;28;20518;-79
2021/09/20 09:12:41;;;;;;;0.77;0.70;;;;;;;12.95;88.69;101984.44;6300569;28;20045;-81
2021/09/20 09:15:48;;;;;;;1.40;0.80;;;;;;;12.98;89.32;101994.81;6300053;28;20049;-81
2021/09/20 09:19:00;;;;;;;3.78;0.80;;;;;;;13.03;88.36;101990.19;6300582;28;20151;-83
2021/09/20 09:22:02;;;;;;;0.75;0.65;;;;;;;13.02;87.50;102001.69;6298911;28;20048;-80
2021/09/20 09:25:08;;;;;;;1.42;0.77;;;;;;;13.04;88.34;101999.84;6299171;28;20055;-83
2021/09/20 09:28:16;;;;;;;0.93;0.85;;;;;;;13.10;87.94;101996.94;6297975;28;20047;-80
2021/09/20 09:31:19;;;;;;;1.42;0.63;;;;;;;13.19;88.63;102012.38;6298079;28;20059;-83
2021/09/20 09:34:22;;;;;;;1.00;0.57;;;;;;;13.23;88.32;102010.50;6301339;28;20053;-81
2021/09/20 09:37:24;;;;;;;2.53;0.80;;;;;;;13.29;87.77;102012.84;6299167;28;20412;-82
2021/09/20 09:40:25;;;;;;;2.60;0.60;;;;;;;13.32;88.03;102018.00;6298015;28;20048;-83
2021/09/20 09:43:29;;;;;;;3.08;0.90;;;;;;;13.33;86.84;102018.84;6297341;28;20135;-81
2021/09/20 09:46:37;;;;;;;1.35;0.75;;;;;;;13.36;87.41;102018.72;6296797;28;20049;-82
2021/09/20 09:49:39;;;;;;;4.43;1.15;;;;;;;13.40;87.67;102022.97;6297871;28;20044;-82
2021/09/20 09:52:41;;;;;;;1.02;0.80;;;;;;;13.50;88.21;102020.75;6297491;28;20400;-82
2021/09/20 09:55:42;;;;;;;1.67;0.70;;;;;;;13.58;85.58;102029.16;6297027;28;20040;-82
2021/09/20 09:58:51;;;;;;;1.42;0.80;;;;;;;13.62;82.16;102018.38;6298587;28;20060;-80
2021/09/20 10:01:54;;;;;;;0.65;0.50;;;;;;;13.68;80.75;102019.91;6301748;28;20059;-79
2021/09/20 10:04:59;;;;;;;1.60;0.70;;;;;;;13.73;82.60;102022.34;6301148;28;20052;-82
2021/09/20 10:08:10;;;;;;;0.65;0.55;;;;;;;13.76;78.91;102016.91;6301290;28;20045;-82
2021/09/20 10:11:11;;;;;;;2.38;0.73;;;;;;;13.81;77.06;102022.84;6301060;28;20053;-82
2021/09/20 10:14:14;;;;;;;0.65;0.50;;;;;;;13.76;78.40;102023.03;6301583;28;20075;-82
2021/09/20 10:17:19;;;;;;;2.20;1.23;;;;;;;13.73;78.09;102015.28;6300911;28;20063;-80
2021/09/20 10:20:23;;;;;;;1.33;0.65;;;;;;;13.73;75.52;102017.91;6301221;28;20048;-81
2021/09/20 10:23:24;;;;;;;0.60;0.60;;;;;;;13.78;76.79;102017.69;6300971;28;20048;-82
2021/09/20 10:26:26;;;;;;;1.27;0.60;;;;;;;13.83;75.61;102005.97;6300916;28;20048;-82
2021/09/20 10:29:28;;;;;;;1.33;0.70;;;;;;;13.89;74.67;102016.25;6301181;28;20055;-82
2021/09/20 10:32:31;;;;;;;0.77;0.63;;;;;;;13.94;75.87;102008.13;6300860;28;20052;-82
2021/09/20 10:35:35;;;;;;;0.70;0.60;;;;;;;13.93;74.87;102001.97;6300445;28;20055;-81
2021/09/20 10:38:36;;;;;;;1.55;0.80;;;;;;;14.02;72.83;102008.63;6300528;28;20067;-82
2021/09/20 10:41:38;;;;;;;0.77;0.60;;;;;;;13.96;70.56;102014.19;6300305;28;20457;-79
2021/09/20 10:44:41;;;;;;;1.48;0.73;;;;;;;13.99;72.07;102006.13;6300264;28;20045;-83
2021/09/20 10:47:45;;;;;;;2.38;0.50;;;;;;;14.15;68.71;101998.31;6300429;28;20049;-80
2021/09/20 10:50:48;;;;;;;0.82;0.73;;;;;;;14.05;71.15;102003.19;6300638;28;20048;-80
2021/09/20 10:54:21;;;;;;;1.75;0.90;;;;;;;14.12;71.83;102001.94;6300156;28;20404;-79
2021/09/20 10:57:22;;;;;;;0.98;0.82;;;;;;;14.17;70.69;102007.91;6300343;28;20044;-82
2021/09/20 11:00:25;;;;;;;3.63;0.60;;;;;;;14.19;70.10;101998.09;6300062;28;20052;-82
2021/09/20 11:03:47;;;;;;;1.70;0.75;;;;;;;14.24;69.71;102005.78;6299624;28;20496;-80
2021/09/20 11:07:04;;;;;;;1.02;0.77;;;;;;;14.23;69.06;102001.44;6290657;28;20040;-82
2021/09/20 11:10:08;;;;;;;0.82;0.60;;;;;;;14.21;69.24;102001.50;6299441;28;20065;-83
2021/09/20 11:13:09;;;;;;;0.85;0.60;;;;;;;14.26;68.80;102000.44;6300232;28;20044;-82
2021/09/20 11:16:11;;;;;;;0.50;0.50;;;;;;;14.28;68.87;101995.94;6299837;28;20147;-81
2021/09/20 11:19:42;;;;;;;0.45;0.45;;;;;;;14.54;65.81;101987.59;6299499;28;20056;-81
2021/09/20 11:22:43;;;;;;;0.52;0.50;;;;;;;15.18;60.59;101984.28;6300175;28;20495;-83
2021/09/20 11:26:06;;;;;;;0.57;0.40;;;;;;;15.53;54.42;101978.03;6299908;28;20059;-80
2021/09/20 11:29:08;;;;;;;0.50;0.50;;;;;;;15.43;53.08;101980.31;6300128;28;20628;-81
2021/09/20 11:32:09;;;;;;;0.57;0.50;;;;;;;15.33;55.87;101976.47;6299687;28;20048;-81
2021/09/20 11:35:13;;;;;;;2.78;0.55;;;;;;;15.33;55.54;101984.41;6301012;28;20055;-82
2021/09/20 11:38:16;;;;;;;0.55;0.50;;;;;;;15.31;60.84;101975.69;6301750;28;20048;-82
2021/09/20 11:41:19;;;;;;;0.55;0.45;;;;;;;15.16;59.67;101982.66;6300128;28;20045;-82
2021/09/20 11:44:27;;;;;;;1.05;0.68;;;;;;;15.06;59.71;101984.06;6300170;28;20051;-82
2021/09/20 11:47:29;;;;;;;0.40;0.40;;;;;;;14.86;55.27;101982.47;6299962;28;20051;-81
2021/09/20 11:50:34;;;;;;;1.48;0.52;;;;;;;14.76;60.99;101990.03;6299419;28;20110;-83
2021/09/20 11:53:35;;;;;;;1.65;0.50;;;;;;;14.57;55.84;101990.06;6300338;28;20052;-82
2021/09/20 11:56:37;;;;;;;0.55;0.50;;;;;;;14.43;60.30;101992.53;6300922;28;20055;-83
2021/09/20 11:59:38;;;;;;;1.00;0.60;;;;;;;14.42;63.17;101996.09;6300085;28;20052;-82
2021/09/20 12:02:43;;;;;;;0.98;0.63;;;;;;;14.39;63.56;102001.53;6299516;28;20052;-82
2021/09/20 12:05:48;;;;;;;1.15;0.68;;;;;;;14.37;63.60;101995.47;6299359;28;20091;-80
2021/09/20 12:08:50;;;;;;;1.27;0.60;;;;;;;14.30;61.56;101991.41;6297976;28;20044;-79
2021/09/20 12:11:51;;;;;;;1.23;0.57;;;;;;;14.38;63.69;101999.84;6298530;28;20139;-80
2021/09/20 12:14:58;;;;;;;0.80;0.60;;;;;;;14.44;62.89;101992.47;6298101;28;20487;-80
2021/09/20 12:18:01;;;;;;;1.75;0.60;;;;;;;14.54;64.28;101998.19;6298586;28;20048;-80
2021/09/20 12:21:06;;;;;;;0.60;0.50;;;;;;;14.62;64.26;101987.19;6298114;28;20040;-79
2021/09/20 12:24:08;;;;;;;0.68;0.50;;;;;;;14.75;63.15;101993.59;6297535;28;20064;-78
2021/09/20 12:27:09;;;;;;;0.57;0.30;;;;;;;14.93;64.40;101982.06;6297882;28;20044;-79
2021/09/20 12:30:15;;;;;;;0.93;0.60;;;;;;;15.10;60.72;101994.41;6298003;28;20166;-79
2021/09/20 12:33:16;;;;;;;1.30;0.68;;;;;;;15.19;58.94;101993.09;6297333;28;20114;-79
2021/09/20 12:36:21;;;;;;;0.93;0.63;;;;;;;15.42;58.82;102000.66;6298077;28;20049;-79
2021/09/20 12:39:25;;;;;;;1.80;0.50;;;;;;;15.38;57.67;101993.81;6334640;22;20039;-91
2021/09/20 12:42:29;;;;;;;1.63;0.57;;;;;;;15.28;57.50;101989.94;6398002;27;20058;-91
2021/09/20 12:45:38;;;;;;;0.50;0.50;;;;;;;15.32;59.14;101998.59;6390963;27;20047;-91
2021/09/20 12:48:41;;;;;;;;;;;;;;;15.33;60.23;102003.81;6385486;27;20498;-77
2021/09/20 12:51:43;;;;;;;4.22;0.52;;;;;;;15.29;59.32;102004.03;6374703;27;19927;-80
2021/09/20 12:54:50;;;;;;;0.68;0.63;;;;;;;15.26;58.12;102009.50;6369603;27;20040;-76
2021/09/20 12:57:54;;;;;;;0.52;0.52;;;;;;;15.34;59.39;102009.94;6352567;28;20491;-85
2021/09/20 13:00:57;;;;;;;1.58;0.80;;;;;;;15.48;57.67;102007.41;6353167;28;20066;-89
2021/09/20 13:04:00;;;;;;;0.82;0.65;;;;;;;15.58;57.30;102007.78;6357515;27;20042;-87
2021/09/20 13:07:06;;;;;;;0.47;0.47;;;;;;;15.80;57.11;102011.00;6359298;27;20414;-82
2021/09/20 13:10:10;;;;;;;0.75;0.57;;;;;;;15.96;54.28;102005.72;6377285;27;20133;-84
2021/09/20 13:13:11;;;;;;;0.80;0.60;;;;;;;15.96;54.77;102008.38;6375378;27;20405;-82
2021/09/20 13:16:14;;;;;;;0.40;0.40;;;;;;;15.94;57.01;102004.94;6378710;27;20142;-84
2021/09/20 13:19:16;;;;;;;0.50;0.50;;;;;;;15.87;54.07;102017.69;6380919;27;20066;-83
2021/09/20 13:22:18;;;;;;;1.00;0.75;;;;;;;15.61;56.79;102016.41;6383602;27;20054;-84
2021/09/20 13:25:22;;;;;;;0.45;0.40;;;;;;;15.53;55.36;102021.25;6384486;27;20054;-83
2021/09/20 13:28:28;;;;;;;1.02;0.60;;;;;;;15.34;57.76;102020.53;6384520;27;20051;-83
2021/09/20 13:31:32;;;;;;;0.60;0.40;;;;;;;15.28;61.37;102016.44;6385688;27;20106;-84
2021/09/20 13:34:33;;;;;;;1.90;1.35;;;;;;;15.23;60.18;102016.69;6387445;27;20075;-84
2021/09/20 13:37:36;;;;;;;1.20;0.80;;;;;;;15.15;62.52;102034.75;6390465;27;20039;-82
2021/09/20 13:40:37;;;;;;;0.80;0.52;;;;;;;15.07;62.18;102030.78;6389865;27;20055;-83
2021/09/20 13:43:40;;;;;;;0.65;0.65;;;;;;;15.00;62.79;102026.75;6391092;27;20067;-83
2021/09/20 13:46:42;;;;;;;0.40;0.40;;;;;;;14.86;62.58;102030.13;6391741;27;20043;-84
2021/09/20 13:49:43;;;;;;;0.55;0.50;;;;;;;14.91;64.97;102026.28;6390869;27;20051;-82
2021/09/20 13:52:46;;;;;;;2.40;0.63;;;;;;;14.95;64.57;102030.50;6389167;27;20055;-83
2021/09/20 13:55:48;;;;;;;1.55;0.50;;;;;;;15.01;63.78;102031.97;6388033;27;20051;-83
2021/09/20 13:58:51;;;;;;;3.10;2.17;;;;;;;14.98;62.11;102040.06;6385858;27;20429;-84
2021/09/20 14:01:52;;;;;;;2.95;0.90;;;;;;;14.87;65.60;102039.75;6388535;27;20051;-84
2021/09/20 14:04:54;;;;;;;1.70;0.80;;;;;;;14.89;62.93;102038.72;6388391;27;20053;-84
2021/09/20 14:07:57;;;;;;;4.90;1.08;;;;;;;14.82;62.63;102049.72;6389099;27;20039;-84